createdAt,value
2018-11-01T00:01:28.362Z,12.00
2018-11-01T00:03:56.772Z,12.00
2018-11-01T00:06:25.183Z,11.90
2018-11-01T00:08:53.535Z,12.20
2018-11-01T00:11:21.865Z,11.90
2018-11-01T00:13:50.330Z,12.20
2018-11-01T00:16:18.876Z,11.90
2018-11-01T00:18:47.196Z,12.00
2018-11-01T00:21:15.615Z,12.00
2018-11-01T00:23:43.913Z,12.10
2018-11-01T00:26:12.369Z,12.10
2018-11-01T00:28:40.640Z,12.10
2018-11-01T00:31:08.969Z,12.10
2018-11-01T00:33:37.461Z,11.80
2018-11-01T00:36:05.766Z,12.00
2018-11-01T00:38:34.266Z,11.70
2018-11-01T00:41:02.622Z,11.90
2018-11-01T00:43:30.937Z,11.40
2018-11-01T00:45:59.469Z,11.60
2018-11-01T00:48:27.845Z,11.80
2018-11-01T00:50:56.217Z,11.60
2018-11-01T00:53:24.706Z,12.10
2018-11-01T00:55:53.086Z,11.10
2018-11-01T00:58:21.568Z,11.10
2018-11-01T01:00:50.041Z,11.70
2018-11-01T01:03:18.381Z,11.80
2018-11-01T01:05:46.809Z,11.80
2018-11-01T01:08:15.090Z,11.70
2018-11-01T01:10:43.541Z,11.50
2018-11-01T01:13:11.956Z,10.70
2018-11-01T01:15:40.370Z,10.60
2018-11-01T01:18:08.877Z,11.00
2018-11-01T01:20:37.173Z,10.60
2018-11-01T01:23:05.979Z,11.20
2018-11-01T01:25:34.395Z,11.20
2018-11-01T01:28:02.699Z,10.90
2018-11-01T01:30:31.007Z,10.90
2018-11-01T01:32:59.474Z,11.20
2018-11-01T01:35:27.893Z,11.20
2018-11-01T01:37:56.229Z,11.10
2018-11-01T01:40:24.785Z,11.20
2018-11-01T01:42:54.679Z,10.60
2018-11-01T01:45:23.860Z,10.70
2018-11-01T01:47:52.543Z,11.20
2018-11-01T01:50:21.269Z,11.10
2018-11-01T01:52:49.839Z,11.00
2018-11-01T01:55:18.298Z,10.70
2018-11-01T01:57:46.637Z,11.40
2018-11-01T02:00:16.414Z,10.60
2018-11-01T02:02:47.978Z,11.40
2018-11-01T02:05:16.287Z,11.10
2018-11-01T02:07:44.720Z,10.70
2018-11-01T02:10:14.382Z,10.90
2018-11-01T02:12:42.717Z,11.10
2018-11-01T02:15:16.559Z,11.60
2018-11-01T02:17:45.148Z,11.30
2018-11-01T02:20:15.271Z,11.30
2018-11-01T02:22:44.343Z,11.10
2018-11-01T02:25:12.746Z,10.40
2018-11-01T02:27:46.753Z,11.10
2018-11-01T02:30:16.112Z,10.90
2018-11-01T02:32:44.972Z,11.10
2018-11-01T02:35:15.547Z,10.70
2018-11-01T02:37:45.006Z,11.30
2018-11-01T02:40:14.307Z,10.90
2018-11-01T02:42:43.256Z,11.10
2018-11-01T02:45:12.833Z,10.70
2018-11-01T02:47:41.691Z,11.00
2018-11-01T02:50:12.002Z,10.70
2018-11-01T02:52:41.596Z,10.30
2018-11-01T02:55:10.664Z,10.50
2018-11-01T02:57:39.541Z,10.10
2018-11-01T03:00:10.818Z,10.80
2018-11-01T03:02:39.760Z,10.90
2018-11-01T03:05:09.330Z,10.30
2018-11-01T03:07:38.461Z,10.80
2018-11-01T03:10:10.002Z,10.50
2018-11-01T03:12:39.036Z,10.80
2018-11-01T03:15:09.978Z,10.50
2018-11-01T03:17:38.384Z,10.50
2018-11-01T03:20:07.897Z,10.10
2018-11-01T03:22:36.561Z,10.40
2018-11-01T03:25:05.547Z,10.30
2018-11-01T03:27:33.977Z,10.40
2018-11-01T03:30:06.280Z,9.90
2018-11-01T03:32:36.139Z,10.20
2018-11-01T03:35:05.014Z,10.20
2018-11-01T03:37:33.585Z,9.90
2018-11-01T03:40:02.077Z,9.80
2018-11-01T03:42:30.446Z,9.30
2018-11-01T03:44:58.816Z,10.30
2018-11-01T03:47:27.324Z,10.10
2018-11-01T03:49:55.675Z,10.00
2018-11-01T03:52:23.974Z,9.80
2018-11-01T03:54:52.502Z,10.20
2018-11-01T03:57:21.174Z,9.30
2018-11-01T03:59:49.694Z,10.00
2018-11-01T04:02:17.988Z,10.00
2018-11-01T04:04:46.458Z,10.20
2018-11-01T04:07:14.909Z,9.70
2018-11-01T04:09:43.263Z,9.70
2018-11-01T04:12:11.703Z,9.30
2018-11-01T04:14:40.044Z,9.50
2018-11-01T04:17:08.555Z,9.50
2018-11-01T04:19:37.221Z,9.50
2018-11-01T04:22:06.374Z,9.60
2018-11-01T04:24:36.003Z,9.80
2018-11-01T04:27:04.825Z,9.60
2018-11-01T04:29:34.384Z,8.90
2018-11-01T04:32:02.986Z,10.00
2018-11-01T04:34:31.402Z,9.00
2018-11-01T04:36:59.891Z,9.60
2018-11-01T04:39:28.368Z,9.50
2018-11-01T04:41:56.714Z,9.20
2018-11-01T04:44:25.039Z,8.90
2018-11-01T04:46:53.476Z,9.40
2018-11-01T04:49:21.890Z,9.50
2018-11-01T04:51:51.418Z,9.40
2018-11-01T04:54:19.941Z,9.60
2018-11-01T04:56:48.313Z,9.70
2018-11-01T04:59:16.639Z,10.00
2018-11-01T05:01:45.172Z,9.20
2018-11-01T05:04:13.767Z,9.70
2018-11-01T05:06:42.119Z,9.60
2018-11-01T05:09:10.434Z,9.60
2018-11-01T05:11:38.922Z,9.80
2018-11-01T05:14:07.301Z,9.70
2018-11-01T05:16:35.613Z,9.90
2018-11-01T05:19:04.289Z,9.90
2018-11-01T05:21:32.691Z,9.70
2018-11-01T05:24:01.973Z,9.50
2018-11-01T05:26:31.646Z,9.70
2018-11-01T05:28:59.990Z,9.80
2018-11-01T05:31:28.500Z,9.80
2018-11-01T05:33:57.300Z,9.70
2018-11-01T05:36:25.698Z,9.70
2018-11-01T05:38:54.039Z,9.40
2018-11-01T05:41:22.707Z,9.30
2018-11-01T05:43:51.043Z,8.80
2018-11-01T05:46:19.361Z,9.10
2018-11-01T05:48:47.912Z,9.00
2018-11-01T05:51:16.302Z,9.50
2018-11-01T05:53:45.478Z,9.50
2018-11-01T05:56:13.913Z,9.60
2018-11-01T05:58:42.340Z,9.30
2018-11-01T06:01:12.883Z,9.80
2018-11-01T06:03:42.152Z,9.40
2018-11-01T06:06:10.698Z,9.40
2018-11-01T06:08:42.291Z,9.30
2018-11-01T06:11:10.681Z,9.30
2018-11-01T06:13:39.261Z,9.30
2018-11-01T06:16:07.619Z,9.80
2018-11-01T06:18:36.212Z,9.20
2018-11-01T06:21:04.874Z,9.70
2018-11-01T06:23:33.182Z,10.00
2018-11-01T06:26:01.479Z,9.60
2018-11-01T06:28:29.938Z,9.90
2018-11-01T06:30:58.239Z,9.50
2018-11-01T06:33:26.533Z,9.60
2018-11-01T06:35:57.787Z,9.60
2018-11-01T06:38:26.100Z,9.60
2018-11-01T06:40:54.439Z,10.00
2018-11-01T06:43:22.818Z,9.80
2018-11-01T06:45:51.150Z,10.00
2018-11-01T06:48:19.489Z,10.00
2018-11-01T06:50:47.876Z,10.00
2018-11-01T06:53:16.279Z,9.70
2018-11-01T06:55:44.768Z,9.60
2018-11-01T06:58:13.250Z,9.70
2018-11-01T07:00:41.607Z,9.70
2018-11-01T07:03:10.144Z,10.10
2018-11-01T07:05:38.634Z,9.70
2018-11-01T07:08:06.907Z,10.10
2018-11-01T07:10:35.346Z,9.80
2018-11-01T07:13:03.935Z,10.00
2018-11-01T07:15:32.258Z,10.00
2018-11-01T07:18:00.716Z,9.50
2018-11-01T07:20:29.178Z,10.00
2018-11-01T07:22:57.575Z,10.80
2018-11-01T07:25:26.178Z,10.10
2018-11-01T07:27:54.477Z,10.00
2018-11-01T07:30:22.823Z,10.10
2018-11-01T07:32:51.385Z,9.80
2018-11-01T07:35:19.694Z,10.40
2018-11-01T07:37:48.056Z,10.40
2018-11-01T07:40:17.476Z,10.70
2018-11-01T07:42:46.908Z,10.80
2018-11-01T07:45:15.545Z,10.90
2018-11-01T07:47:44.471Z,11.00
2018-11-01T07:50:13.550Z,10.60
2018-11-01T07:52:42.051Z,11.40
2018-11-01T07:55:13.183Z,11.70
2018-11-01T07:57:41.769Z,11.60
2018-11-01T08:00:13.993Z,11.40
2018-11-01T08:02:43.309Z,11.00
2018-11-01T08:05:12.305Z,11.80
2018-11-01T08:07:41.203Z,11.60
2018-11-01T08:10:12.858Z,11.80
2018-11-01T08:12:42.168Z,11.90
2018-11-01T08:15:12.781Z,12.30
2018-11-01T08:17:41.546Z,12.10
2018-11-01T08:20:12.198Z,12.50
2018-11-01T08:22:40.794Z,12.40
2018-11-01T08:25:10.102Z,12.50
2018-11-01T08:27:39.665Z,12.40
2018-11-01T08:30:10.643Z,12.90
2018-11-01T08:32:38.975Z,13.30
2018-11-01T08:35:07.996Z,13.10
2018-11-01T08:37:36.649Z,13.00
2018-11-01T08:40:07.381Z,13.60
2018-11-01T08:42:35.877Z,13.20
2018-11-01T08:45:06.260Z,13.50
2018-11-01T08:47:34.790Z,13.60
2018-11-01T08:50:03.370Z,13.10
2018-11-01T08:52:31.911Z,13.30
2018-11-01T08:55:00.306Z,13.40
2018-11-01T08:57:28.773Z,13.40
2018-11-01T08:59:57.304Z,14.20
2018-11-01T09:02:25.807Z,14.10
2018-11-01T09:04:54.317Z,14.30
2018-11-01T09:07:23.885Z,14.70
2018-11-01T09:09:52.401Z,14.80
2018-11-01T09:12:20.874Z,14.50
2018-11-01T09:14:50.239Z,14.40
2018-11-01T09:17:19.400Z,14.60
2018-11-01T09:19:48.402Z,14.10
2018-11-01T09:22:16.827Z,14.60
2018-11-01T09:24:45.556Z,14.30
2018-11-01T09:27:14.687Z,14.80
2018-11-01T09:29:43.156Z,14.50
2018-11-01T09:32:11.731Z,14.40
2018-11-01T09:34:41.166Z,15.00
2018-11-01T09:37:09.846Z,14.70
2018-11-01T09:39:38.433Z,15.10
2018-11-01T09:42:07.486Z,15.20
2018-11-01T09:44:35.962Z,15.50
2018-11-01T09:47:05.481Z,15.10
2018-11-01T09:49:33.985Z,15.50
2018-11-01T09:52:02.420Z,15.50
2018-11-01T09:54:30.940Z,15.50
2018-11-01T09:57:00.187Z,15.80
2018-11-01T09:59:28.609Z,15.60
2018-11-01T10:01:57.704Z,15.80
2018-11-01T10:04:26.231Z,15.90
2018-11-01T10:06:54.858Z,15.60
2018-11-01T10:09:23.252Z,15.50
2018-11-01T10:11:51.744Z,15.00
2018-11-01T10:14:20.296Z,15.40
2018-11-01T10:16:48.957Z,15.50
2018-11-01T10:19:18.178Z,15.20
2018-11-01T10:21:46.640Z,15.20
2018-11-01T10:24:14.879Z,15.10
2018-11-01T10:26:43.789Z,14.90
2018-11-01T10:29:12.203Z,14.90
2018-11-01T10:31:40.682Z,15.00
2018-11-01T10:34:09.191Z,14.90
2018-11-01T10:36:41.637Z,14.80
2018-11-01T10:39:13.079Z,14.40
2018-11-01T10:41:42.244Z,14.30
2018-11-01T10:44:10.911Z,14.90
2018-11-01T10:46:42.618Z,15.00
2018-11-01T10:49:11.796Z,14.50
2018-11-01T10:51:48.165Z,14.80
2018-11-01T10:54:17.367Z,14.50
2018-11-01T10:56:48.198Z,15.30
2018-11-01T10:59:21.183Z,15.30
2018-11-01T11:01:56.997Z,15.10
2018-11-01T11:04:26.891Z,15.20
2018-11-01T11:06:56.196Z,15.40
2018-11-01T11:09:26.752Z,14.90
2018-11-01T11:11:57.172Z,15.30
2018-11-01T11:14:26.880Z,15.80
2018-11-01T11:16:56.224Z,16.10
2018-11-01T11:19:27.649Z,16.20
2018-11-01T11:21:56.212Z,16.10
2018-11-01T11:24:27.145Z,15.60
2018-11-01T11:26:58.133Z,16.30
2018-11-01T11:29:30.484Z,16.40
2018-11-01T11:32:02.260Z,15.80
2018-11-01T11:34:32.232Z,16.50
2018-11-01T11:37:01.645Z,16.20
2018-11-01T11:39:32.444Z,15.40
2018-11-01T11:44:37.863Z,16.20
2018-11-01T11:47:08.979Z,15.90
2018-11-01T11:49:40.690Z,16.30
2018-11-01T11:52:10.669Z,16.00
2018-11-01T11:54:40.154Z,16.80
2018-11-01T11:57:09.113Z,15.90
2018-11-01T11:59:38.385Z,16.60
2018-11-01T12:02:07.975Z,16.50
2018-11-01T12:04:37.585Z,17.10
2018-11-01T12:07:09.201Z,16.70
2018-11-01T12:09:38.557Z,16.90
2018-11-01T12:12:08.391Z,16.70
2018-11-01T12:14:37.565Z,16.70
2018-11-01T12:17:08.003Z,16.80
2018-11-01T12:19:37.475Z,16.80
2018-11-01T12:22:07.504Z,16.20
2018-11-01T12:24:36.151Z,15.70
2018-11-01T12:27:04.862Z,15.70
2018-11-01T12:29:36.337Z,15.90
2018-11-01T12:32:05.283Z,15.70
2018-11-01T12:34:35.274Z,15.60
2018-11-01T12:37:04.975Z,15.30
2018-11-01T12:39:34.432Z,15.60
2018-11-01T12:42:07.614Z,15.20
2018-11-01T12:44:36.494Z,15.10
2018-11-01T12:47:04.957Z,15.40
2018-11-01T12:49:33.604Z,15.60
2018-11-01T12:52:02.768Z,15.30
2018-11-01T12:54:31.106Z,15.50
2018-11-01T12:57:00.287Z,15.30
2018-11-01T12:59:28.749Z,14.90
2018-11-01T13:01:57.186Z,15.10
2018-11-01T13:04:25.874Z,15.60
2018-11-01T13:06:54.305Z,15.80
2018-11-01T13:09:25.225Z,15.00
2018-11-01T13:11:55.222Z,15.50
2018-11-01T13:14:26.412Z,15.20
2018-11-01T13:16:58.503Z,15.30
2018-11-01T13:19:28.187Z,15.70
2018-11-01T13:21:56.783Z,15.20
2018-11-01T13:24:25.147Z,15.60
2018-11-01T13:26:53.884Z,15.20
2018-11-01T13:29:22.536Z,15.60
2018-11-01T13:31:51.115Z,14.90
2018-11-01T13:34:19.502Z,15.40
2018-11-01T13:36:47.999Z,15.10
2018-11-01T13:39:16.685Z,14.80
2018-11-01T13:41:45.171Z,15.10
2018-11-01T13:44:13.450Z,14.90
2018-11-01T13:46:42.443Z,15.20
2018-11-01T13:49:10.816Z,15.40
2018-11-01T13:51:39.365Z,15.20
2018-11-01T13:54:08.423Z,14.80
2018-11-01T13:56:36.994Z,14.60
2018-11-01T13:59:06.279Z,14.70
2018-11-01T14:01:34.873Z,14.60
2018-11-01T14:04:03.496Z,14.80
2018-11-01T14:06:32.356Z,14.50
2018-11-01T14:09:00.888Z,14.30
2018-11-01T14:11:29.382Z,14.40
2018-11-01T14:13:59.226Z,14.30
2018-11-01T14:16:27.584Z,14.30
2018-11-01T14:18:56.144Z,14.20
2018-11-01T14:21:24.813Z,14.10
2018-11-01T14:23:53.315Z,13.40
2018-11-01T14:26:21.742Z,14.00
2018-11-01T14:28:50.270Z,13.80
2018-11-01T14:31:18.759Z,13.70
2018-11-01T14:33:47.259Z,13.80
2018-11-01T14:36:15.949Z,13.30
2018-11-01T14:38:44.872Z,13.60
2018-11-01T14:41:14.741Z,13.70
2018-11-01T14:43:43.348Z,14.00
2018-11-01T14:46:12.505Z,14.00
2018-11-01T14:48:42.640Z,13.50
2018-11-01T14:51:11.924Z,13.80
2018-11-01T14:53:40.460Z,13.70
2018-11-01T14:56:11.976Z,13.50
2018-11-01T14:58:40.115Z,13.00
2018-11-01T15:01:07.252Z,12.80
2018-11-01T15:03:35.902Z,13.30
2018-11-01T15:06:05.424Z,13.00
2018-11-01T15:08:33.957Z,13.30
2018-11-01T15:11:02.444Z,12.50
2018-11-01T15:13:31.463Z,12.40
2018-11-01T15:15:59.963Z,12.70
2018-11-01T15:18:28.282Z,13.00
2018-11-01T15:20:56.675Z,12.60
2018-11-01T15:23:25.426Z,12.10
2018-11-01T15:25:54.465Z,12.60
2018-11-01T15:28:22.851Z,12.70
2018-11-01T15:30:51.331Z,12.20
2018-11-01T15:33:19.797Z,12.90
2018-11-01T15:35:48.263Z,12.80
2018-11-01T15:38:16.818Z,11.90
2018-11-01T15:40:45.244Z,12.70
2018-11-01T15:43:13.841Z,12.80
2018-11-01T15:45:42.152Z,12.70
2018-11-01T15:48:17.670Z,12.70
2018-11-01T15:50:45.920Z,12.50
2018-11-01T15:53:15.331Z,12.30
2018-11-01T15:55:43.693Z,12.50
2018-11-01T15:58:12.065Z,12.70
2018-11-01T16:00:40.501Z,12.30
2018-11-01T16:03:09.713Z,12.40
2018-11-01T16:05:38.152Z,12.70
2018-11-01T16:08:06.708Z,12.50
2018-11-01T16:10:35.413Z,12.60
2018-11-01T16:13:04.144Z,12.10
2018-11-01T16:15:32.790Z,12.40
2018-11-01T16:18:01.976Z,12.70
2018-11-01T16:20:30.386Z,12.00
2018-11-01T16:22:59.200Z,12.30
2018-11-01T16:25:27.647Z,12.50
2018-11-01T16:27:56.048Z,12.70
2018-11-01T16:30:24.661Z,12.40
2018-11-01T16:32:53.380Z,12.50
2018-11-01T16:35:21.783Z,12.40
2018-11-01T16:37:54.502Z,12.10
2018-11-01T16:40:23.805Z,12.40
2018-11-01T16:42:53.341Z,12.50
2018-11-01T16:45:21.889Z,12.40
2018-11-01T16:47:50.018Z,12.40
2018-11-01T16:50:18.461Z,12.30
2018-11-01T16:52:47.522Z,11.70
2018-11-01T16:55:15.952Z,12.30
2018-11-01T16:57:44.395Z,12.30
2018-11-01T17:00:13.454Z,12.30
2018-11-01T17:02:44.163Z,12.40
2018-11-01T17:05:12.543Z,12.20
2018-11-01T17:07:42.349Z,12.50
2018-11-01T17:10:12.459Z,12.20
2018-11-01T17:12:41.195Z,12.50
2018-11-01T17:15:12.116Z,12.80
2018-11-01T17:17:40.791Z,12.50
2018-11-01T17:20:09.169Z,12.50
2018-11-01T17:22:37.675Z,12.40
2018-11-01T17:25:07.517Z,12.50
2018-11-01T17:27:35.918Z,12.90
2018-11-01T17:30:07.278Z,12.40
2018-11-01T17:32:41.806Z,12.80
2018-11-01T17:35:10.384Z,12.20
2018-11-01T17:37:38.690Z,12.30
2018-11-01T17:40:08.052Z,12.20
2018-11-01T17:42:36.735Z,12.40
2018-11-01T17:45:06.323Z,11.90
2018-11-01T17:47:34.690Z,12.20
2018-11-01T17:50:03.654Z,11.60
2018-11-01T17:52:32.111Z,12.10
2018-11-01T17:55:00.656Z,12.20
2018-11-01T17:57:29.112Z,12.00
2018-11-01T17:59:57.533Z,12.30
2018-11-01T18:02:26.029Z,12.40
2018-11-01T18:04:54.373Z,12.70
2018-11-01T18:07:23.018Z,12.60
2018-11-01T18:09:51.484Z,12.20
2018-11-01T18:12:19.906Z,11.50
2018-11-01T18:14:48.341Z,11.90
2018-11-01T18:17:16.711Z,12.20
2018-11-01T18:19:45.115Z,12.40
2018-11-01T18:22:13.463Z,12.60
2018-11-01T18:24:42.038Z,12.10
2018-11-01T18:27:10.587Z,11.90
2018-11-01T18:29:39.420Z,12.00
2018-11-01T18:32:08.297Z,11.90
2018-11-01T18:34:36.676Z,12.60
2018-11-01T18:37:06.165Z,12.20
2018-11-01T18:39:35.496Z,12.20
2018-11-01T18:42:03.961Z,12.10
2018-11-01T18:44:34.902Z,12.30
2018-11-01T18:47:04.817Z,12.20
2018-11-01T18:49:34.113Z,11.90
2018-11-01T18:52:02.673Z,12.20
2018-11-01T18:54:31.997Z,12.10
2018-11-01T18:57:00.277Z,11.50
2018-11-01T18:59:28.693Z,12.10
2018-11-01T19:01:57.064Z,12.10
2018-11-01T19:04:25.512Z,12.70
2018-11-01T19:06:55.032Z,11.70
2018-11-01T19:09:23.455Z,12.30
2018-11-01T19:11:54.754Z,11.70
2018-11-01T19:14:23.590Z,12.30
2018-11-01T19:16:51.989Z,12.30
2018-11-01T19:19:20.623Z,11.70
2018-11-01T19:21:49.159Z,12.40
2018-11-01T19:24:17.552Z,12.70
2018-11-01T19:26:46.114Z,12.10
2018-11-01T19:29:14.627Z,12.40
2018-11-01T19:31:45.596Z,11.90
2018-11-01T19:34:14.096Z,12.60
2018-11-01T19:36:43.404Z,12.50
2018-11-01T19:39:13.055Z,12.60
2018-11-01T19:41:41.524Z,12.70
2018-11-01T19:44:11.154Z,12.70
2018-11-01T19:46:39.711Z,12.80
2018-11-01T19:49:08.134Z,12.80
2018-11-01T19:51:36.901Z,12.30
2018-11-01T19:54:05.810Z,12.70
2018-11-01T19:56:34.440Z,12.20
2018-11-01T19:59:03.040Z,13.10
2018-11-01T20:01:31.491Z,12.20
2018-11-01T20:04:27.615Z,12.60
2018-11-01T20:07:05.939Z,13.00
2018-11-01T20:09:36.155Z,12.60
2018-11-01T20:12:06.374Z,12.30
2018-11-01T20:15:04.210Z,12.50
2018-11-01T20:17:32.940Z,12.60
2018-11-01T20:20:02.001Z,12.70
2018-11-01T20:22:30.374Z,12.30
2018-11-01T20:24:59.722Z,12.50
2018-11-01T20:27:28.246Z,12.50
2018-11-01T20:29:56.788Z,12.10
2018-11-01T20:32:25.470Z,12.70
2018-11-01T20:34:55.633Z,12.00
2018-11-01T20:39:56.825Z,11.90
2018-11-01T20:42:27.788Z,11.90
2018-11-01T20:44:56.540Z,12.30
2018-11-01T20:47:25.123Z,11.80
2018-11-01T20:49:53.775Z,12.30
2018-11-01T20:52:22.964Z,12.60
2018-11-01T20:54:51.438Z,12.50
2018-11-01T20:57:20.188Z,11.80
2018-11-01T20:59:48.552Z,12.70
2018-11-01T21:02:18.674Z,11.90
2018-11-01T21:04:48.008Z,12.10
2018-11-01T21:07:16.455Z,12.70
2018-11-01T21:09:45.416Z,12.40
2018-11-01T21:12:14.165Z,12.70
2018-11-01T21:14:44.376Z,12.60
2018-11-01T21:17:13.036Z,12.00
2018-11-01T21:19:41.837Z,12.10
2018-11-01T21:22:13.138Z,12.60
2018-11-01T21:24:43.074Z,12.20
2018-11-01T21:27:11.543Z,13.00
2018-11-01T21:29:39.940Z,12.80
2018-11-01T21:32:09.297Z,12.40
2018-11-01T21:34:38.326Z,12.40
2018-11-01T21:37:07.730Z,12.70
2018-11-01T21:39:49.907Z,12.50
2018-11-01T21:42:18.402Z,12.50
2018-11-01T21:44:54.019Z,12.50
2018-11-01T21:47:24.198Z,12.40
2018-11-01T21:49:52.851Z,11.90
2018-11-01T21:52:21.298Z,11.60
2018-11-01T21:54:50.410Z,12.30
2018-11-01T21:57:20.869Z,12.10
2018-11-01T21:59:50.561Z,11.90
2018-11-01T22:02:20.060Z,12.30
2018-11-01T22:04:48.860Z,12.00
2018-11-01T22:07:18.230Z,12.20
2018-11-01T22:09:47.727Z,12.20
2018-11-01T22:12:16.943Z,12.50
2018-11-01T22:14:47.735Z,12.20
2018-11-01T22:17:18.386Z,12.40
2018-11-01T22:19:50.862Z,12.40
2018-11-01T22:22:19.651Z,12.40
2018-11-01T22:24:49.297Z,12.70
2018-11-01T22:27:17.811Z,12.40
2018-11-01T22:29:48.270Z,12.10
2018-11-01T22:32:20.160Z,12.40
2018-11-01T22:34:50.480Z,12.30
2018-11-01T22:37:24.547Z,12.60
2018-11-01T22:39:54.768Z,12.30
2018-11-01T22:42:25.758Z,12.40
2018-11-01T22:44:54.212Z,12.20
2018-11-01T22:47:24.166Z,12.30
2018-11-01T22:49:52.780Z,12.00
2018-11-01T22:52:24.715Z,12.00
2018-11-01T22:54:55.235Z,12.10
2018-11-01T22:57:23.940Z,12.30
2018-11-01T22:59:53.598Z,12.50
2018-11-01T23:02:23.699Z,12.10
2018-11-01T23:04:53.534Z,12.20
2018-11-01T23:07:23.094Z,12.40
2018-11-01T23:09:54.526Z,12.40
2018-11-01T23:12:25.862Z,12.10
2018-11-01T23:14:57.339Z,11.90
2018-11-01T23:17:27.033Z,12.40
2018-11-01T23:19:56.278Z,12.10
2018-11-01T23:22:27.250Z,12.40
2018-11-01T23:24:56.516Z,12.50
2018-11-01T23:27:25.203Z,12.50
2018-11-01T23:29:55.711Z,11.90
2018-11-01T23:32:24.425Z,12.30
2018-11-01T23:34:55.010Z,12.20
2018-11-01T23:37:31.201Z,11.40
2018-11-01T23:40:05.173Z,11.60
2018-11-01T23:42:39.370Z,12.20
2018-11-01T23:45:15.754Z,12.00
2018-11-01T23:47:49.914Z,12.00
2018-11-01T23:51:26.242Z,12.20
2018-11-01T23:53:55.321Z,12.10
2018-11-01T23:56:25.182Z,11.90
2018-11-01T23:58:55.497Z,11.90
